createdAt,value
2022-08-05T00:00:16.599Z,49.91
2022-08-05T00:02:51.070Z,49.16
2022-08-05T00:06:02.890Z,50.04
2022-08-05T00:08:30.834Z,49.08
2022-08-05T00:11:01.231Z,49.27
2022-08-05T00:13:39.407Z,49.10
2022-08-05T00:16:09.476Z,49.93
2022-08-05T00:18:38.297Z,49.95
2022-08-05T00:21:06.748Z,50.41
2022-08-05T00:23:46.470Z,49.39
2022-08-05T00:26:21.034Z,49.83
2022-08-05T00:28:49.433Z,49.20
2022-08-05T00:31:16.320Z,49.71
2022-08-05T00:34:55.263Z,49.68
2022-08-05T00:37:12.726Z,49.78
2022-08-05T00:39:16.100Z,49.93
2022-08-05T00:41:55.191Z,49.72
2022-08-05T00:44:30.354Z,49.06
2022-08-05T00:47:03.843Z,48.74
2022-08-05T00:49:32.601Z,48.72
2022-08-05T00:51:59.832Z,48.30
2022-08-05T00:54:28.196Z,48.92
2022-08-05T00:56:56.984Z,48.80
2022-08-05T00:59:23.736Z,48.26
2022-08-05T01:01:50.939Z,47.87
2022-08-05T01:04:20.155Z,47.43
2022-08-05T01:06:53.635Z,47.00
2022-08-05T01:09:22.082Z,46.83
2022-08-05T01:11:52.184Z,47.04
2022-08-05T01:14:46.812Z,46.73
2022-08-05T01:17:22.778Z,47.40
2022-08-05T01:20:01.964Z,48.10
2022-08-05T01:22:51.387Z,48.52
2022-08-05T01:25:41.079Z,49.29
2022-08-05T01:28:35.600Z,49.95
2022-08-05T01:31:27.744Z,50.42
2022-08-05T01:34:08.449Z,49.98
2022-08-05T01:36:46.985Z,49.27
2022-08-05T01:39:36.069Z,49.08
2022-08-05T01:42:06.718Z,48.38
2022-08-05T01:44:37.493Z,48.45
2022-08-05T01:47:05.120Z,48.58
2022-08-05T01:50:01.960Z,48.87
2022-08-05T01:52:21.225Z,48.32
2022-08-05T01:54:56.882Z,49.54
2022-08-05T01:58:12.658Z,50.08
2022-08-05T02:00:30.595Z,48.36
2022-08-05T02:03:24.601Z,48.87
2022-08-05T02:05:59.971Z,48.52
2022-08-05T02:08:31.130Z,48.15
2022-08-05T02:11:15.858Z,48.85
2022-08-05T02:14:17.413Z,49.19
2022-08-05T02:16:53.093Z,49.06
2022-08-05T02:19:35.157Z,49.19
2022-08-05T02:22:05.375Z,50.59
2022-08-05T02:24:38.290Z,50.48
2022-08-05T02:27:09.121Z,51.35
2022-08-05T02:29:59.735Z,52.11
2022-08-05T02:32:30.908Z,50.47
2022-08-05T02:35:13.570Z,51.07
2022-08-05T02:37:47.622Z,52.29
2022-08-05T02:40:21.362Z,52.62
2022-08-05T02:42:53.049Z,52.68
2022-08-05T02:45:24.205Z,52.44
2022-08-05T02:48:11.410Z,52.03
2022-08-05T02:50:43.966Z,52.00
2022-08-05T02:53:16.150Z,52.11
2022-08-05T02:55:54.471Z,51.28
2022-08-05T02:58:27.282Z,51.12
2022-08-05T03:00:56.588Z,51.05
2022-08-05T03:06:53.761Z,51.16
2022-08-05T03:08:42.564Z,51.35
2022-08-05T03:11:56.910Z,52.00
2022-08-05T03:14:07.978Z,52.26
2022-08-05T03:16:35.630Z,52.30
2022-08-05T03:19:08.778Z,53.27
2022-08-05T03:21:41.680Z,53.29
2022-08-05T03:24:16.934Z,53.23
2022-08-05T03:26:43.476Z,52.53
2022-08-05T03:29:17.287Z,52.03
2022-08-05T03:31:57.072Z,51.59
2022-08-05T03:34:28.772Z,50.72
2022-08-05T03:36:55.369Z,50.59
2022-08-05T03:39:27.082Z,50.15
2022-08-05T03:41:56.262Z,49.75
2022-08-05T03:44:23.491Z,49.86
2022-08-05T03:46:50.276Z,49.34
2022-08-05T03:49:17.150Z,48.77
2022-08-05T03:52:48.882Z,49.07
2022-08-05T03:55:53.362Z,50.35
2022-08-05T03:57:42.330Z,50.35
2022-08-05T04:00:16.033Z,50.33
2022-08-05T04:02:58.188Z,51.11
2022-08-05T04:05:33.621Z,51.03
2022-08-05T04:08:29.772Z,50.40
2022-08-05T04:10:53.420Z,49.50
2022-08-05T04:13:21.667Z,48.92
2022-08-05T04:16:02.802Z,48.63
2022-08-05T04:18:32.186Z,48.66
2022-08-05T04:21:01.670Z,49.21
2022-08-05T04:24:04.980Z,49.79
2022-08-05T04:26:17.424Z,50.13
2022-08-05T04:28:50.844Z,50.05
2022-08-05T04:31:19.000Z,49.86
2022-08-05T04:34:17.569Z,49.35
2022-08-05T04:36:44.740Z,49.99
2022-08-05T04:39:15.919Z,50.65
2022-08-05T04:41:42.509Z,51.03
2022-08-05T04:44:10.733Z,51.43
2022-08-05T04:46:38.487Z,50.81
2022-08-05T04:49:12.309Z,49.80
2022-08-05T04:51:41.436Z,49.40
2022-08-05T04:54:09.206Z,49.20
2022-08-05T04:56:37.199Z,48.76
2022-08-05T04:59:22.255Z,48.63
2022-08-05T05:02:07.570Z,48.79
2022-08-05T05:04:44.044Z,48.38
2022-08-05T05:07:15.902Z,46.53
2022-08-05T05:09:44.429Z,44.70
2022-08-05T05:12:11.512Z,43.74
2022-08-05T05:14:38.352Z,42.49
2022-08-05T05:17:22.738Z,42.84
2022-08-05T05:19:53.275Z,40.50
2022-08-05T05:22:24.192Z,40.26
2022-08-05T05:24:59.532Z,41.86
2022-08-05T05:27:44.331Z,40.17
2022-08-05T05:30:29.508Z,40.55
2022-08-05T05:33:00.678Z,40.43
2022-08-05T05:35:34.233Z,38.81
2022-08-05T05:38:05.538Z,42.84
2022-08-05T05:40:32.616Z,36.92
2022-08-05T05:43:02.190Z,41.67
2022-08-05T05:45:28.734Z,36.91
2022-08-05T05:48:05.567Z,38.37
2022-08-05T05:50:41.235Z,39.31
2022-08-05T05:53:20.866Z,37.61
2022-08-05T05:55:52.097Z,39.48
2022-08-05T05:58:31.380Z,37.07
2022-08-05T06:01:12.829Z,42.54
2022-08-05T06:04:01.100Z,39.54
2022-08-05T06:06:31.378Z,39.36
2022-08-05T06:09:05.599Z,38.97
2022-08-05T06:11:34.976Z,42.51
2022-08-05T06:14:06.162Z,42.64
2022-08-05T06:16:37.365Z,39.44
2022-08-05T06:19:07.597Z,37.40
2022-08-05T06:21:37.378Z,39.92
2022-08-05T06:24:11.395Z,39.07
2022-08-05T06:26:51.759Z,39.16
2022-08-05T06:29:46.346Z,36.15
2022-08-05T06:32:25.585Z,31.78
2022-08-05T06:34:56.890Z,34.22
2022-08-05T06:37:57.796Z,35.32
2022-08-05T06:40:13.778Z,37.90
2022-08-05T06:42:40.921Z,38.62
2022-08-05T06:45:09.364Z,35.90
2022-08-05T06:48:12.488Z,30.31
2022-08-05T06:50:23.758Z,30.45
2022-08-05T06:53:03.515Z,29.40
2022-08-05T06:55:38.459Z,27.38
2022-08-05T06:58:20.367Z,28.89
2022-08-05T07:00:57.897Z,32.87
2022-08-05T07:03:32.496Z,27.47
2022-08-05T07:06:06.196Z,31.82
2022-08-05T07:08:42.787Z,28.34
2022-08-05T07:11:15.522Z,27.78
2022-08-05T07:14:02.015Z,32.92
2022-08-05T07:18:00.227Z,33.44
2022-08-05T07:22:27.618Z,28.52
2022-08-05T07:25:21.890Z,31.60
2022-08-05T07:28:08.393Z,25.16
2022-08-05T07:30:41.207Z,27.70
2022-08-05T07:33:16.074Z,29.05
2022-08-05T07:36:05.158Z,26.46
2022-08-05T07:38:35.665Z,25.69
2022-08-05T07:42:13.615Z,24.05
2022-08-05T07:44:18.512Z,26.83
2022-08-05T07:46:48.575Z,27.44
2022-08-05T07:49:18.257Z,25.22
2022-08-05T07:51:53.023Z,25.57
2022-08-05T07:54:31.579Z,24.19
2022-08-05T07:57:13.987Z,28.86
2022-08-05T07:59:53.685Z,23.58
2022-08-05T08:02:26.751Z,24.72
2022-08-05T08:04:58.506Z,24.80
2022-08-05T08:07:25.247Z,26.55
2022-08-05T08:09:55.284Z,25.96
2022-08-05T08:12:37.054Z,24.61
2022-08-05T08:15:09.393Z,26.16
2022-08-05T08:17:40.806Z,24.62
2022-08-05T08:20:42.795Z,25.16
2022-08-05T08:23:11.680Z,26.58
2022-08-05T08:26:00.179Z,26.28
2022-08-05T08:28:37.166Z,25.19
2022-08-05T08:31:09.813Z,23.81
2022-08-05T08:33:41.650Z,24.13
2022-08-05T08:38:55.990Z,24.23
2022-08-05T08:41:26.255Z,24.19
2022-08-05T08:45:19.194Z,22.60
2022-08-05T08:46:58.110Z,22.43
2022-08-05T08:50:13.183Z,23.95
2022-08-05T08:52:19.754Z,22.96
2022-08-05T08:54:47.964Z,22.26
2022-08-05T08:57:14.829Z,22.58
2022-08-05T08:59:56.166Z,22.89
2022-08-05T09:02:33.814Z,21.80
2022-08-05T09:05:17.643Z,22.82
2022-08-05T09:07:57.437Z,22.77
2022-08-05T09:10:26.988Z,23.71
2022-08-05T09:12:55.217Z,22.49
2022-08-05T09:15:22.847Z,22.23
2022-08-05T09:17:52.967Z,22.86
2022-08-05T09:20:36.285Z,22.17
2022-08-05T09:23:19.219Z,20.61
2022-08-05T09:26:01.103Z,21.53
2022-08-05T09:28:33.440Z,19.96
2022-08-05T09:31:43.824Z,18.89
2022-08-05T09:34:04.596Z,19.73
2022-08-05T09:36:56.101Z,18.38
2022-08-05T09:39:41.362Z,19.59
2022-08-05T09:42:24.437Z,18.81
2022-08-05T09:44:56.453Z,19.58
2022-08-05T09:47:34.928Z,18.89
2022-08-05T09:50:05.038Z,20.76
2022-08-05T09:52:36.252Z,20.28
2022-08-05T09:55:57.427Z,21.69
2022-08-05T09:57:59.779Z,21.55
2022-08-05T10:00:27.634Z,21.28
2022-08-05T10:02:58.662Z,20.79
2022-08-05T10:05:28.188Z,19.37
2022-08-05T10:08:35.203Z,19.56
2022-08-05T10:10:54.169Z,18.73
2022-08-05T10:13:45.779Z,19.46
2022-08-05T10:16:32.300Z,19.80
2022-08-05T10:19:01.776Z,21.08
2022-08-05T10:21:40.331Z,22.54
2022-08-05T10:24:13.453Z,21.58
2022-08-05T10:26:48.923Z,22.18
2022-08-05T10:29:24.199Z,22.97
2022-08-05T10:33:00.860Z,22.16
2022-08-05T10:34:55.361Z,21.42
2022-08-05T10:37:22.584Z,21.87
2022-08-05T10:39:59.047Z,22.19
2022-08-05T10:42:36.634Z,22.92
2022-08-05T10:45:21.419Z,22.83
2022-08-05T10:48:31.038Z,22.99
2022-08-05T10:51:00.181Z,23.64
2022-08-05T10:53:38.045Z,24.33
2022-08-05T10:56:21.103Z,22.77
2022-08-05T10:58:50.689Z,23.55
2022-08-05T11:01:28.057Z,25.28
2022-08-05T11:04:08.803Z,24.79
2022-08-05T11:07:00.372Z,26.39
2022-08-05T11:09:45.418Z,26.35
2022-08-05T11:12:37.295Z,26.17
2022-08-05T11:15:19.709Z,24.73
2022-08-05T11:18:25.977Z,24.47
2022-08-05T11:20:53.547Z,25.56
2022-08-05T11:24:04.528Z,25.24
2022-08-05T11:26:40.964Z,25.08
2022-08-05T11:29:42.665Z,24.11
2022-08-05T11:32:29.998Z,24.57
2022-08-05T11:34:57.538Z,24.59
2022-08-05T11:38:29.464Z,25.32
2022-08-05T11:41:35.104Z,25.17
2022-08-05T11:44:05.153Z,25.84
2022-08-05T11:46:35.716Z,24.94
2022-08-05T11:49:05.423Z,24.73
2022-08-05T11:51:44.776Z,25.47
2022-08-05T11:54:34.378Z,25.07
2022-08-05T11:57:08.661Z,25.31
2022-08-05T11:59:50.854Z,24.82
2022-08-05T12:02:30.366Z,25.14
2022-08-05T12:05:00.492Z,25.81
2022-08-05T12:08:07.584Z,24.99
2022-08-05T12:10:24.898Z,25.86
2022-08-05T12:13:15.633Z,25.46
2022-08-05T12:15:45.327Z,25.75
2022-08-05T12:18:32.342Z,25.60
2022-08-05T12:21:13.585Z,24.43
2022-08-05T12:24:14.062Z,25.13
2022-08-05T12:26:47.869Z,25.67
2022-08-05T12:29:23.526Z,25.60
2022-08-05T12:31:53.612Z,25.03
2022-08-05T12:34:24.035Z,25.14
2022-08-05T12:36:54.494Z,26.17
2022-08-05T12:39:23.702Z,26.00
2022-08-05T12:42:00.867Z,25.58
2022-08-05T12:44:33.469Z,24.86
2022-08-05T12:47:02.070Z,25.30
2022-08-05T12:50:03.284Z,25.85
2022-08-05T12:52:38.768Z,25.21
2022-08-05T12:55:44.201Z,25.77
2022-08-05T12:58:49.662Z,26.25
2022-08-05T13:02:03.553Z,25.94
2022-08-05T13:03:56.949Z,25.85
2022-08-05T13:06:26.099Z,26.30
2022-08-05T13:08:52.978Z,25.87
2022-08-05T13:11:59.676Z,25.00
2022-08-05T13:14:24.909Z,25.59
2022-08-05T13:17:03.011Z,25.42
2022-08-05T13:19:51.590Z,25.86
2022-08-05T13:22:29.287Z,25.92
2022-08-05T13:25:05.130Z,24.91
2022-08-05T13:27:40.133Z,25.32
2022-08-05T13:30:33.955Z,24.97
2022-08-05T13:33:01.701Z,25.04
2022-08-05T13:35:43.269Z,25.29
2022-08-05T13:38:28.260Z,25.13
2022-08-05T13:40:58.584Z,25.25
2022-08-05T13:43:44.495Z,24.64
2022-08-05T13:46:12.230Z,24.23
2022-08-05T13:48:57.908Z,23.80
2022-08-05T13:51:29.785Z,25.57
2022-08-05T13:54:12.772Z,25.08
2022-08-05T13:56:39.903Z,25.31
2022-08-05T13:59:19.692Z,25.20
2022-08-05T14:01:58.414Z,25.96
2022-08-05T14:04:49.954Z,25.57
2022-08-05T14:07:26.537Z,25.75
2022-08-05T14:10:19.107Z,25.23
2022-08-05T14:12:55.046Z,25.69
2022-08-05T14:16:09.325Z,25.32
2022-08-05T14:18:15.162Z,26.30
2022-08-05T14:20:48.950Z,25.66
2022-08-05T14:23:24.979Z,25.90
2022-08-05T14:25:58.896Z,25.55
2022-08-05T14:28:28.386Z,25.88
2022-08-05T14:30:56.103Z,26.10
2022-08-05T14:33:23.886Z,25.30
2022-08-05T14:35:51.732Z,25.88
2022-08-05T14:38:32.063Z,25.97
2022-08-05T14:41:05.827Z,25.67
2022-08-05T14:44:00.053Z,25.71
2022-08-05T14:46:20.163Z,26.56
2022-08-05T14:48:49.947Z,26.41
2022-08-05T14:51:17.806Z,26.37
2022-08-05T14:53:45.447Z,25.76
2022-08-05T14:56:31.969Z,25.81
2022-08-05T14:58:58.551Z,26.11
2022-08-05T15:01:48.702Z,26.64
2022-08-05T15:04:12.316Z,26.29
2022-08-05T15:06:40.391Z,26.31
2022-08-05T15:09:08.548Z,25.69
2022-08-05T15:11:50.978Z,25.69
2022-08-05T15:14:34.426Z,25.40
2022-08-05T15:17:05.114Z,25.84
2022-08-05T15:19:36.678Z,26.17
2022-08-05T15:22:05.939Z,26.02
2022-08-05T15:24:32.726Z,26.26
2022-08-05T15:26:59.262Z,25.86
2022-08-05T15:29:30.149Z,26.05
2022-08-05T15:31:57.738Z,25.85
2022-08-05T15:34:32.281Z,26.16
2022-08-05T15:37:04.895Z,26.06
2022-08-05T15:41:01.804Z,26.03
2022-08-05T15:42:54.165Z,25.78
2022-08-05T15:45:07.849Z,26.26
2022-08-05T15:47:36.609Z,26.12
2022-08-05T15:50:04.225Z,26.16
2022-08-05T15:52:53.676Z,27.02
2022-08-05T15:55:24.973Z,27.25
2022-08-05T15:58:07.324Z,27.04
2022-08-05T16:01:04.055Z,28.18
2022-08-05T16:03:20.985Z,28.20
2022-08-05T16:05:52.458Z,27.06
2022-08-05T16:08:19.432Z,27.56
2022-08-05T16:10:46.082Z,27.64
2022-08-05T16:13:23.608Z,27.29
2022-08-05T16:15:51.886Z,27.16
2022-08-05T16:18:19.146Z,27.32
2022-08-05T16:20:46.343Z,27.27
2022-08-05T16:23:12.933Z,27.34
2022-08-05T16:25:40.076Z,27.91
2022-08-05T16:28:09.666Z,27.52
2022-08-05T16:30:37.159Z,27.74
2022-08-05T16:33:03.992Z,27.79
2022-08-05T16:35:32.560Z,27.63
2022-08-05T16:38:15.414Z,27.12
2022-08-05T16:40:47.665Z,28.17
2022-08-05T16:43:19.202Z,27.78
2022-08-05T16:46:07.518Z,28.39
2022-08-05T16:48:35.346Z,28.09
2022-08-05T16:51:02.317Z,27.89
2022-08-05T16:54:05.025Z,28.01
2022-08-05T16:56:24.032Z,28.09
2022-08-05T16:58:51.321Z,28.11
2022-08-05T17:01:18.755Z,28.85
2022-08-05T17:03:46.093Z,28.68
2022-08-05T17:06:13.450Z,28.29
2022-08-05T17:08:53.405Z,28.59
2022-08-05T17:11:25.414Z,28.46
2022-08-05T17:14:05.427Z,28.04
2022-08-05T17:16:36.829Z,28.26
2022-08-05T17:19:07.330Z,28.40
2022-08-05T17:21:37.080Z,29.20
2022-08-05T17:24:19.310Z,28.95
2022-08-05T17:26:58.678Z,28.63
2022-08-05T17:29:33.632Z,28.17
2022-08-05T17:32:11.178Z,28.69
2022-08-05T17:34:39.093Z,28.48
2022-08-05T17:37:35.962Z,28.30
2022-08-05T17:39:55.855Z,28.40
2022-08-05T17:42:25.831Z,28.29
2022-08-05T17:44:56.627Z,28.33
2022-08-05T17:47:23.746Z,28.72
2022-08-05T17:50:00.350Z,28.39
2022-08-05T17:52:34.225Z,28.88
2022-08-05T17:55:01.274Z,28.87
2022-08-05T17:57:30.026Z,29.61
2022-08-05T18:00:04.761Z,29.68
2022-08-05T18:02:34.228Z,30.16
2022-08-05T18:05:06.400Z,30.04
2022-08-05T18:07:41.470Z,29.74
2022-08-05T18:10:11.006Z,29.70
2022-08-05T18:12:38.311Z,31.18
2022-08-05T18:15:05.974Z,29.98
2022-08-05T18:18:01.118Z,29.80
2022-08-05T18:20:29.602Z,30.22
2022-08-05T18:23:00.562Z,29.95
2022-08-05T18:25:35.874Z,29.39
2022-08-05T18:28:04.759Z,30.13
2022-08-05T18:30:33.104Z,29.78
2022-08-05T18:33:01.129Z,30.90
2022-08-05T18:36:00.795Z,30.40
2022-08-05T18:38:19.370Z,29.96
2022-08-05T18:41:57.225Z,30.65
2022-08-05T18:43:42.816Z,31.05
2022-08-05T18:46:15.120Z,31.95
2022-08-05T18:48:42.164Z,33.44
2022-08-05T18:52:03.271Z,32.19
2022-08-05T18:54:14.582Z,35.04
2022-08-05T18:56:41.895Z,35.89
2022-08-05T18:59:42.908Z,36.92
2022-08-05T19:02:04.961Z,35.16
2022-08-05T19:05:03.030Z,35.48
2022-08-05T19:07:45.916Z,35.84
2022-08-05T19:10:13.245Z,35.50
2022-08-05T19:12:40.375Z,33.98
2022-08-05T19:15:45.079Z,35.50
2022-08-05T19:17:59.103Z,36.00
2022-08-05T19:20:36.758Z,35.41
2022-08-05T19:23:03.333Z,35.55
2022-08-05T19:25:41.949Z,34.02
2022-08-05T19:28:10.485Z,33.95
2022-08-05T19:30:37.034Z,34.54
2022-08-05T19:33:05.066Z,34.27
2022-08-05T19:35:52.212Z,34.41
2022-08-05T19:38:26.498Z,33.72
2022-08-05T19:40:53.615Z,35.56
2022-08-05T19:44:04.505Z,35.77
2022-08-05T19:46:06.731Z,35.54
2022-08-05T19:48:53.270Z,34.26
2022-08-05T19:51:56.591Z,34.37
2022-08-05T19:54:26.635Z,34.68
2022-08-05T19:56:55.245Z,35.00
2022-08-05T19:59:54.586Z,35.21
2022-08-05T20:02:08.456Z,34.71
2022-08-05T20:04:35.178Z,35.47
2022-08-05T20:07:02.710Z,34.96
2022-08-05T20:09:29.456Z,34.75
2022-08-05T20:12:16.036Z,35.05
2022-08-05T20:14:45.553Z,34.44
2022-08-05T20:17:18.689Z,34.61
2022-08-05T20:19:45.244Z,34.90
2022-08-05T20:22:11.903Z,34.77
2022-08-05T20:24:38.468Z,34.61
2022-08-05T20:27:11.248Z,35.40
2022-08-05T20:29:38.360Z,35.60
2022-08-05T20:32:06.453Z,35.82
2022-08-05T20:34:33.101Z,35.56
2022-08-05T20:37:00.781Z,36.11
2022-08-05T20:39:35.563Z,36.27
2022-08-05T20:42:04.955Z,36.75
2022-08-05T20:44:33.081Z,37.86
2022-08-05T20:47:07.517Z,38.26
2022-08-05T20:49:39.450Z,37.72
2022-08-05T20:52:07.048Z,38.46
2022-08-05T20:54:59.805Z,38.35
2022-08-05T20:57:24.650Z,37.34
2022-08-05T21:00:19.891Z,37.73
2022-08-05T21:03:00.062Z,37.03
2022-08-05T21:05:28.565Z,36.93
2022-08-05T21:08:15.033Z,37.81
2022-08-05T21:10:48.715Z,38.80
2022-08-05T21:13:36.744Z,38.52
2022-08-05T21:16:03.693Z,40.34
2022-08-05T21:18:30.539Z,40.10
2022-08-05T21:20:57.422Z,38.65
2022-08-05T21:23:24.720Z,38.60
2022-08-05T21:25:51.690Z,39.28
2022-08-05T21:28:23.741Z,37.59
2022-08-05T21:30:50.692Z,37.27
2022-08-05T21:33:22.589Z,37.91
2022-08-05T21:35:55.984Z,38.34
2022-08-05T21:38:26.484Z,38.21
2022-08-05T21:40:53.056Z,40.05
2022-08-05T21:43:24.778Z,39.75
2022-08-05T21:45:56.834Z,39.25
2022-08-05T21:48:24.426Z,42.18
2022-08-05T21:50:53.189Z,43.64
2022-08-05T21:53:21.509Z,42.46
2022-08-05T21:56:06.022Z,42.91
2022-08-05T21:58:42.408Z,40.14
2022-08-05T22:01:23.959Z,43.07
2022-08-05T22:03:53.079Z,41.07
2022-08-05T22:06:22.866Z,42.79
2022-08-05T22:09:01.616Z,44.11
2022-08-05T22:11:40.140Z,45.12
2022-08-05T22:14:35.236Z,44.04
2022-08-05T22:16:56.073Z,45.74
2022-08-05T22:20:01.193Z,44.75
2022-08-05T22:22:11.558Z,46.65
2022-08-05T22:24:57.319Z,47.64
2022-08-05T22:28:04.907Z,47.74
2022-08-05T22:30:32.444Z,48.37
2022-08-05T22:33:02.470Z,47.74
2022-08-05T22:35:30.995Z,48.75
2022-08-05T22:38:17.233Z,46.88
2022-08-05T22:40:49.414Z,45.44
2022-08-05T22:43:36.974Z,44.32
2022-08-05T22:46:09.056Z,43.45
2022-08-05T22:48:40.084Z,44.15
2022-08-05T22:53:58.028Z,43.60
2022-08-05T22:56:30.140Z,43.93
2022-08-05T22:58:58.160Z,43.61
2022-08-05T23:02:04.662Z,43.21
2022-08-05T23:04:13.587Z,43.65
2022-08-05T23:06:41.049Z,43.58
2022-08-05T23:09:27.741Z,42.85
2022-08-05T23:11:55.605Z,43.97
2022-08-05T23:14:31.971Z,44.56
2022-08-05T23:17:18.605Z,44.56
2022-08-05T23:19:59.047Z,45.51
2022-08-05T23:22:27.281Z,45.64
2022-08-05T23:24:55.265Z,45.39
2022-08-05T23:27:22.758Z,44.92
2022-08-05T23:29:50.761Z,45.11
2022-08-05T23:32:17.572Z,44.33
2022-08-05T23:34:49.757Z,44.22
2022-08-05T23:37:17.757Z,44.94
2022-08-05T23:39:53.825Z,43.55
2022-08-05T23:42:23.450Z,44.62
2022-08-05T23:44:56.435Z,45.29
2022-08-05T23:47:25.067Z,45.33
2022-08-05T23:49:55.502Z,45.59
2022-08-05T23:52:35.983Z,47.05
2022-08-05T23:55:09.913Z,47.30
2022-08-05T23:57:37.618Z,46.16
